sensor_id;sensor_type;location;lat;lon;timestamp;P1;durP1;ratioP1;P2;durP2;ratioP2
41139;SDS011;26881;48.784;9.192;2022-09-17T00:04:21;2.00;;;0.80;;
41139;SDS011;26881;48.784;9.192;2022-09-17T00:09:43;2.88;;;0.55;;
41139;SDS011;26881;48.784;9.192;2022-09-17T00:15:05;1.77;;;0.70;;
41139;SDS011;26881;48.784;9.192;2022-09-17T00:20:27;3.75;;;0.80;;
41139;SDS011;26881;48.784;9.192;2022-09-17T00:25:49;2.65;;;0.80;;
41139;SDS011;26881;48.784;9.192;2022-09-17T00:31:11;4.05;;;0.73;;
41139;SDS011;26881;48.784;9.192;2022-09-17T00:36:34;2.72;;;0.80;;
41139;SDS011;26881;48.784;9.192;2022-09-17T00:41:57;2.90;;;0.80;;
41139;SDS011;26881;48.784;9.192;2022-09-17T00:52:41;0.80;;;0.80;;
41139;SDS011;26881;48.784;9.192;2022-09-17T00:58:07;6.45;;;0.70;;
41139;SDS011;26881;48.784;9.192;2022-09-17T01:03:31;4.30;;;0.70;;
41139;SDS011;26881;48.784;9.192;2022-09-17T01:20:30;2.30;;;1.02;;
41139;SDS011;26881;48.784;9.192;2022-09-17T01:27:11;1.30;;;0.80;;
41139;SDS011;26881;48.784;9.192;2022-09-17T01:32:21;2.75;;;1.08;;
41139;SDS011;26881;48.784;9.192;2022-09-17T01:38:12;3.08;;;0.93;;
41139;SDS011;26881;48.784;9.192;2022-09-17T01:43:45;4.20;;;1.60;;
41139;SDS011;26881;48.784;9.192;2022-09-17T01:49:17;3.10;;;1.00;;
41139;SDS011;26881;48.784;9.192;2022-09-17T01:54:43;6.85;;;1.10;;
41139;SDS011;26881;48.784;9.192;2022-09-17T02:00:10;4.60;;;1.08;;
41139;SDS011;26881;48.784;9.192;2022-09-17T02:05:38;1.85;;;0.80;;
41139;SDS011;26881;48.784;9.192;2022-09-17T02:11:07;1.98;;;1.10;;
41139;SDS011;26881;48.784;9.192;2022-09-17T02:16:33;3.22;;;0.90;;
41139;SDS011;26881;48.784;9.192;2022-09-17T02:22:20;3.33;;;0.90;;
41139;SDS011;26881;48.784;9.192;2022-09-17T02:28:02;3.42;;;1.00;;
41139;SDS011;26881;48.784;9.192;2022-09-17T02:33:32;5.15;;;0.98;;
41139;SDS011;26881;48.784;9.192;2022-09-17T02:38:59;6.03;;;0.80;;
41139;SDS011;26881;48.784;9.192;2022-09-17T02:44:25;5.10;;;1.25;;
41139;SDS011;26881;48.784;9.192;2022-09-17T03:01:32;4.35;;;1.23;;
41139;SDS011;26881;48.784;9.192;2022-09-17T03:07:03;2.67;;;1.13;;
41139;SDS011;26881;48.784;9.192;2022-09-17T03:12:29;5.63;;;1.30;;
41139;SDS011;26881;48.784;9.192;2022-09-17T03:17:51;7.23;;;1.83;;
41139;SDS011;26881;48.784;9.192;2022-09-17T03:23:14;4.85;;;1.35;;
41139;SDS011;26881;48.784;9.192;2022-09-17T03:28:35;8.00;;;1.58;;
41139;SDS011;26881;48.784;9.192;2022-09-17T03:33:57;6.60;;;1.15;;
41139;SDS011;26881;48.784;9.192;2022-09-17T03:39:19;3.67;;;1.42;;
41139;SDS011;26881;48.784;9.192;2022-09-17T03:44:41;6.90;;;1.17;;
41139;SDS011;26881;48.784;9.192;2022-09-17T03:50:06;3.47;;;1.15;;
41139;SDS011;26881;48.784;9.192;2022-09-17T03:55:28;4.07;;;1.23;;
41139;SDS011;26881;48.784;9.192;2022-09-17T04:00:49;8.32;;;1.55;;
41139;SDS011;26881;48.784;9.192;2022-09-17T04:06:13;3.70;;;0.80;;
41139;SDS011;26881;48.784;9.192;2022-09-17T04:11:35;2.75;;;1.13;;
41139;SDS011;26881;48.784;9.192;2022-09-17T04:16:57;5.00;;;1.65;;
41139;SDS011;26881;48.784;9.192;2022-09-17T04:22:19;7.80;;;1.85;;
41139;SDS011;26881;48.784;9.192;2022-09-17T04:27:42;4.30;;;1.13;;
41139;SDS011;26881;48.784;9.192;2022-09-17T04:33:04;5.63;;;1.40;;
41139;SDS011;26881;48.784;9.192;2022-09-17T04:38:26;7.07;;;1.00;;
41139;SDS011;26881;48.784;9.192;2022-09-17T04:43:48;5.05;;;1.08;;
41139;SDS011;26881;48.784;9.192;2022-09-17T04:49:09;3.05;;;1.20;;
41139;SDS011;26881;48.784;9.192;2022-09-17T04:54:31;1.83;;;1.00;;
41139;SDS011;26881;48.784;9.192;2022-09-17T04:59:53;7.90;;;1.45;;
41139;SDS011;26881;48.784;9.192;2022-09-17T05:05:16;5.50;;;1.42;;
41139;SDS011;26881;48.784;9.192;2022-09-17T05:10:38;5.32;;;1.60;;
41139;SDS011;26881;48.784;9.192;2022-09-17T05:16:00;6.22;;;1.38;;
41139;SDS011;26881;48.784;9.192;2022-09-17T05:21:22;8.00;;;1.48;;
41139;SDS011;26881;48.784;9.192;2022-09-17T05:26:44;3.30;;;1.48;;
41139;SDS011;26881;48.784;9.192;2022-09-17T05:32:06;6.95;;;1.25;;
41139;SDS011;26881;48.784;9.192;2022-09-17T05:37:28;9.65;;;1.60;;
41139;SDS011;26881;48.784;9.192;2022-09-17T05:42:50;6.38;;;1.30;;
41139;SDS011;26881;48.784;9.192;2022-09-17T05:48:12;5.68;;;1.73;;
41139;SDS011;26881;48.784;9.192;2022-09-17T05:53:35;8.98;;;1.45;;
41139;SDS011;26881;48.784;9.192;2022-09-17T05:58:57;9.63;;;1.85;;
41139;SDS011;26881;48.784;9.192;2022-09-17T06:04:18;5.32;;;1.40;;
41139;SDS011;26881;48.784;9.192;2022-09-17T06:09:40;6.38;;;1.77;;
41139;SDS011;26881;48.784;9.192;2022-09-17T06:15:02;7.75;;;1.85;;
41139;SDS011;26881;48.784;9.192;2022-09-17T06:20:25;11.05;;;2.83;;
41139;SDS011;26881;48.784;9.192;2022-09-17T06:25:59;12.13;;;2.20;;
41139;SDS011;26881;48.784;9.192;2022-09-17T06:31:21;10.05;;;1.83;;
41139;SDS011;26881;48.784;9.192;2022-09-17T06:36:43;10.93;;;1.90;;
41139;SDS011;26881;48.784;9.192;2022-09-17T06:42:05;4.93;;;1.52;;
41139;SDS011;26881;48.784;9.192;2022-09-17T06:47:27;10.23;;;1.50;;
41139;SDS011;26881;48.784;9.192;2022-09-17T06:52:49;7.65;;;1.60;;
41139;SDS011;26881;48.784;9.192;2022-09-17T06:58:13;7.53;;;1.45;;
41139;SDS011;26881;48.784;9.192;2022-09-17T07:03:36;6.03;;;1.45;;
41139;SDS011;26881;48.784;9.192;2022-09-17T07:08:58;6.93;;;1.50;;
41139;SDS011;26881;48.784;9.192;2022-09-17T07:14:20;5.40;;;1.40;;
41139;SDS011;26881;48.784;9.192;2022-09-17T07:19:45;4.32;;;1.52;;
41139;SDS011;26881;48.784;9.192;2022-09-17T07:25:06;6.80;;;1.58;;
41139;SDS011;26881;48.784;9.192;2022-09-17T07:30:29;5.45;;;1.65;;
41139;SDS011;26881;48.784;9.192;2022-09-17T07:35:57;6.78;;;1.60;;
41139;SDS011;26881;48.784;9.192;2022-09-17T07:41:21;5.38;;;1.58;;
41139;SDS011;26881;48.784;9.192;2022-09-17T07:46:43;6.82;;;1.50;;
41139;SDS011;26881;48.784;9.192;2022-09-17T07:52:05;5.22;;;1.48;;
41139;SDS011;26881;48.784;9.192;2022-09-17T07:57:27;4.93;;;1.42;;
41139;SDS011;26881;48.784;9.192;2022-09-17T08:02:52;6.93;;;1.38;;
41139;SDS011;26881;48.784;9.192;2022-09-17T08:08:15;8.30;;;1.80;;
41139;SDS011;26881;48.784;9.192;2022-09-17T08:13:41;4.85;;;1.45;;
41139;SDS011;26881;48.784;9.192;2022-09-17T08:19:03;5.00;;;1.50;;
41139;SDS011;26881;48.784;9.192;2022-09-17T08:24:25;4.07;;;1.40;;
41139;SDS011;26881;48.784;9.192;2022-09-17T08:29:48;5.90;;;1.90;;
41139;SDS011;26881;48.784;9.192;2022-09-17T08:35:10;3.83;;;1.80;;
41139;SDS011;26881;48.784;9.192;2022-09-17T08:40:33;8.82;;;2.25;;
41139;SDS011;26881;48.784;9.192;2022-09-17T08:46:03;9.15;;;2.17;;
41139;SDS011;26881;48.784;9.192;2022-09-17T08:57:31;11.90;;;2.42;;
41139;SDS011;26881;48.784;9.192;2022-09-17T09:03:18;9.38;;;2.15;;
41139;SDS011;26881;48.784;9.192;2022-09-17T09:08:55;13.48;;;2.85;;
41139;SDS011;26881;48.784;9.192;2022-09-17T09:14:25;9.80;;;2.38;;
41139;SDS011;26881;48.784;9.192;2022-09-17T09:19:50;11.75;;;2.45;;
41139;SDS011;26881;48.784;9.192;2022-09-17T09:31:00;10.70;;;2.20;;
41139;SDS011;26881;48.784;9.192;2022-09-17T09:36:26;10.95;;;2.30;;
41139;SDS011;26881;48.784;9.192;2022-09-17T09:41:59;15.95;;;3.28;;
41139;SDS011;26881;48.784;9.192;2022-09-17T09:47:32;12.68;;;2.20;;
41139;SDS011;26881;48.784;9.192;2022-09-17T09:53:07;13.82;;;3.05;;
41139;SDS011;26881;48.784;9.192;2022-09-17T09:58:44;9.57;;;2.05;;
41139;SDS011;26881;48.784;9.192;2022-09-17T10:04:13;10.07;;;2.00;;
41139;SDS011;26881;48.784;9.192;2022-09-17T10:09:38;11.57;;;2.10;;
41139;SDS011;26881;48.784;9.192;2022-09-17T10:15:27;8.55;;;1.80;;
41139;SDS011;26881;48.784;9.192;2022-09-17T10:20:50;5.97;;;1.70;;
41139;SDS011;26881;48.784;9.192;2022-09-17T10:26:31;10.38;;;1.85;;
41139;SDS011;26881;48.784;9.192;2022-09-17T10:31:56;10.35;;;2.78;;
41139;SDS011;26881;48.784;9.192;2022-09-17T10:43:15;8.65;;;1.80;;
41139;SDS011;26881;48.784;9.192;2022-09-17T10:48:43;5.00;;;1.67;;
41139;SDS011;26881;48.784;9.192;2022-09-17T11:11:50;5.55;;;1.40;;
41139;SDS011;26881;48.784;9.192;2022-09-17T11:34:29;4.93;;;1.13;;
41139;SDS011;26881;48.784;9.192;2022-09-17T11:45:35;5.15;;;1.20;;
41139;SDS011;26881;48.784;9.192;2022-09-17T11:51:42;4.50;;;1.40;;
41139;SDS011;26881;48.784;9.192;2022-09-17T11:57:12;3.83;;;1.00;;
41139;SDS011;26881;48.784;9.192;2022-09-17T12:08:21;4.00;;;1.40;;
41139;SDS011;26881;48.784;9.192;2022-09-17T12:13:48;7.68;;;1.52;;
41139;SDS011;26881;48.784;9.192;2022-09-17T12:19:30;4.05;;;1.33;;
41139;SDS011;26881;48.784;9.192;2022-09-17T12:24:56;5.00;;;1.50;;
41139;SDS011;26881;48.784;9.192;2022-09-17T12:30:18;2.83;;;1.20;;
41139;SDS011;26881;48.784;9.192;2022-09-17T12:47:09;5.30;;;1.20;;
41139;SDS011;26881;48.784;9.192;2022-09-17T13:03:54;1.70;;;1.00;;
41139;SDS011;26881;48.784;9.192;2022-09-17T13:21:22;1.85;;;0.88;;
41139;SDS011;26881;48.784;9.192;2022-09-17T13:26:52;2.00;;;1.10;;
41139;SDS011;26881;48.784;9.192;2022-09-17T13:37:55;2.33;;;1.00;;
41139;SDS011;26881;48.784;9.192;2022-09-17T13:43:19;1.67;;;0.80;;
41139;SDS011;26881;48.784;9.192;2022-09-17T13:48:47;9.07;;;0.90;;
41139;SDS011;26881;48.784;9.192;2022-09-17T13:54:13;2.78;;;0.80;;
41139;SDS011;26881;48.784;9.192;2022-09-17T13:59:37;2.28;;;0.90;;
41139;SDS011;26881;48.784;9.192;2022-09-17T14:05:24;2.15;;;0.80;;
41139;SDS011;26881;48.784;9.192;2022-09-17T14:10:53;1.42;;;0.85;;
41139;SDS011;26881;48.784;9.192;2022-09-17T14:21:55;1.60;;;0.80;;
41139;SDS011;26881;48.784;9.192;2022-09-17T14:33:07;2.90;;;1.20;;
41139;SDS011;26881;48.784;9.192;2022-09-17T14:44:06;3.33;;;1.15;;
41139;SDS011;26881;48.784;9.192;2022-09-17T14:49:36;2.33;;;1.10;;
41139;SDS011;26881;48.784;9.192;2022-09-17T15:00:52;5.18;;;1.35;;
41139;SDS011;26881;48.784;9.192;2022-09-17T15:06:20;3.40;;;1.05;;
41139;SDS011;26881;48.784;9.192;2022-09-17T15:11:43;3.45;;;1.20;;
41139;SDS011;26881;48.784;9.192;2022-09-17T15:17:11;5.18;;;1.50;;
41139;SDS011;26881;48.784;9.192;2022-09-17T15:22:36;2.58;;;1.33;;
41139;SDS011;26881;48.784;9.192;2022-09-17T15:28:11;6.75;;;1.30;;
41139;SDS011;26881;48.784;9.192;2022-09-17T15:33:41;5.78;;;1.55;;
41139;SDS011;26881;48.784;9.192;2022-09-17T15:45:17;5.65;;;1.27;;
41139;SDS011;26881;48.784;9.192;2022-09-17T15:51:41;6.45;;;1.60;;
41139;SDS011;26881;48.784;9.192;2022-09-17T15:56:46;4.53;;;1.23;;
41139;SDS011;26881;48.784;9.192;2022-09-17T16:02:27;3.72;;;1.30;;
41139;SDS011;26881;48.784;9.192;2022-09-17T16:07:51;5.13;;;1.67;;
41139;SDS011;26881;48.784;9.192;2022-09-17T16:13:13;4.85;;;1.35;;
41139;SDS011;26881;48.784;9.192;2022-09-17T16:18:34;4.32;;;1.33;;
41139;SDS011;26881;48.784;9.192;2022-09-17T16:23:56;4.68;;;1.20;;
41139;SDS011;26881;48.784;9.192;2022-09-17T16:29:18;5.68;;;1.30;;
41139;SDS011;26881;48.784;9.192;2022-09-17T16:34:41;3.03;;;1.20;;
41139;SDS011;26881;48.784;9.192;2022-09-17T16:40:03;3.38;;;1.35;;
41139;SDS011;26881;48.784;9.192;2022-09-17T16:45:25;4.00;;;1.27;;
41139;SDS011;26881;48.784;9.192;2022-09-17T16:50:49;4.65;;;1.60;;
41139;SDS011;26881;48.784;9.192;2022-09-17T16:56:12;3.67;;;1.50;;
41139;SDS011;26881;48.784;9.192;2022-09-17T17:01:35;3.17;;;1.33;;
41139;SDS011;26881;48.784;9.192;2022-09-17T17:06:57;5.80;;;1.35;;
41139;SDS011;26881;48.784;9.192;2022-09-17T17:12:19;7.25;;;1.85;;
41139;SDS011;26881;48.784;9.192;2022-09-17T17:17:41;6.45;;;1.50;;
41139;SDS011;26881;48.784;9.192;2022-09-17T17:23:02;7.50;;;1.40;;
41139;SDS011;26881;48.784;9.192;2022-09-17T17:28:24;6.57;;;1.67;;
41139;SDS011;26881;48.784;9.192;2022-09-17T17:33:46;6.40;;;1.70;;
41139;SDS011;26881;48.784;9.192;2022-09-17T17:39:08;8.38;;;2.15;;
41139;SDS011;26881;48.784;9.192;2022-09-17T17:44:30;4.68;;;2.10;;
41139;SDS011;26881;48.784;9.192;2022-09-17T17:49:52;4.55;;;1.67;;
41139;SDS011;26881;48.784;9.192;2022-09-17T17:55:14;5.55;;;2.30;;
41139;SDS011;26881;48.784;9.192;2022-09-17T18:00:37;4.70;;;2.10;;
41139;SDS011;26881;48.784;9.192;2022-09-17T18:05:58;3.55;;;1.50;;
41139;SDS011;26881;48.784;9.192;2022-09-17T18:11:21;2.92;;;1.38;;
41139;SDS011;26881;48.784;9.192;2022-09-17T18:16:43;2.45;;;1.30;;
41139;SDS011;26881;48.784;9.192;2022-09-17T18:22:05;3.22;;;1.25;;
41139;SDS011;26881;48.784;9.192;2022-09-17T18:27:27;4.82;;;1.48;;
41139;SDS011;26881;48.784;9.192;2022-09-17T18:32:48;2.25;;;1.55;;
41139;SDS011;26881;48.784;9.192;2022-09-17T18:38:10;4.25;;;1.65;;
41139;SDS011;26881;48.784;9.192;2022-09-17T18:43:32;3.05;;;1.23;;
41139;SDS011;26881;48.784;9.192;2022-09-17T18:48:55;9.80;;;1.75;;
41139;SDS011;26881;48.784;9.192;2022-09-17T18:54:18;5.43;;;2.03;;
41139;SDS011;26881;48.784;9.192;2022-09-17T18:59:40;3.35;;;1.52;;
41139;SDS011;26881;48.784;9.192;2022-09-17T19:05:02;6.05;;;1.90;;
41139;SDS011;26881;48.784;9.192;2022-09-17T19:10:24;4.35;;;1.95;;
41139;SDS011;26881;48.784;9.192;2022-09-17T19:15:47;2.58;;;0.90;;
41139;SDS011;26881;48.784;9.192;2022-09-17T19:21:10;2.70;;;0.73;;
41139;SDS011;26881;48.784;9.192;2022-09-17T19:26:33;2.65;;;1.00;;
41139;SDS011;26881;48.784;9.192;2022-09-17T19:31:54;2.75;;;1.00;;
41139;SDS011;26881;48.784;9.192;2022-09-17T19:37:16;2.72;;;1.00;;
41139;SDS011;26881;48.784;9.192;2022-09-17T19:42:38;3.15;;;1.10;;
41139;SDS011;26881;48.784;9.192;2022-09-17T19:48:00;2.40;;;0.80;;
41139;SDS011;26881;48.784;9.192;2022-09-17T19:53:22;6.45;;;0.80;;
41139;SDS011;26881;48.784;9.192;2022-09-17T19:58:45;3.22;;;1.20;;
41139;SDS011;26881;48.784;9.192;2022-09-17T20:04:07;2.37;;;0.90;;
41139;SDS011;26881;48.784;9.192;2022-09-17T20:09:30;4.70;;;1.38;;
41139;SDS011;26881;48.784;9.192;2022-09-17T20:14:53;3.42;;;1.10;;
41139;SDS011;26881;48.784;9.192;2022-09-17T20:20:15;3.13;;;1.20;;
41139;SDS011;26881;48.784;9.192;2022-09-17T20:25:37;2.75;;;1.17;;
41139;SDS011;26881;48.784;9.192;2022-09-17T20:31:00;4.68;;;1.50;;
41139;SDS011;26881;48.784;9.192;2022-09-17T20:36:24;2.42;;;0.98;;
41139;SDS011;26881;48.784;9.192;2022-09-17T20:41:48;3.33;;;1.07;;
41139;SDS011;26881;48.784;9.192;2022-09-17T20:47:10;3.58;;;1.08;;
41139;SDS011;26881;48.784;9.192;2022-09-17T20:52:32;4.40;;;1.13;;
41139;SDS011;26881;48.784;9.192;2022-09-17T20:57:53;1.33;;;0.88;;
41139;SDS011;26881;48.784;9.192;2022-09-17T21:03:15;2.93;;;1.63;;
41139;SDS011;26881;48.784;9.192;2022-09-17T21:08:37;3.73;;;1.03;;
41139;SDS011;26881;48.784;9.192;2022-09-17T21:13:59;5.32;;;1.25;;
41139;SDS011;26881;48.784;9.192;2022-09-17T21:19:21;3.80;;;1.50;;
41139;SDS011;26881;48.784;9.192;2022-09-17T21:24:45;2.47;;;1.25;;
41139;SDS011;26881;48.784;9.192;2022-09-17T21:30:07;3.10;;;0.80;;
41139;SDS011;26881;48.784;9.192;2022-09-17T21:35:31;7.40;;;3.10;;
41139;SDS011;26881;48.784;9.192;2022-09-17T21:40:57;3.17;;;1.15;;
41139;SDS011;26881;48.784;9.192;2022-09-17T21:46:21;4.18;;;1.25;;
41139;SDS011;26881;48.784;9.192;2022-09-17T21:51:45;7.93;;;2.08;;
41139;SDS011;26881;48.784;9.192;2022-09-17T21:57:06;4.88;;;1.70;;
41139;SDS011;26881;48.784;9.192;2022-09-17T22:02:28;4.45;;;1.52;;
41139;SDS011;26881;48.784;9.192;2022-09-17T22:07:50;4.15;;;1.55;;
41139;SDS011;26881;48.784;9.192;2022-09-17T22:13:12;10.43;;;1.60;;
41139;SDS011;26881;48.784;9.192;2022-09-17T22:18:35;6.50;;;1.73;;
41139;SDS011;26881;48.784;9.192;2022-09-17T22:23:59;5.13;;;1.00;;
41139;SDS011;26881;48.784;9.192;2022-09-17T22:29:22;5.63;;;1.27;;
41139;SDS011;26881;48.784;9.192;2022-09-17T22:34:45;6.10;;;1.30;;
41139;SDS011;26881;48.784;9.192;2022-09-17T22:40:07;7.10;;;1.67;;
41139;SDS011;26881;48.784;9.192;2022-09-17T22:45:29;6.50;;;1.42;;
41139;SDS011;26881;48.784;9.192;2022-09-17T22:50:51;5.40;;;1.42;;
41139;SDS011;26881;48.784;9.192;2022-09-17T22:56:14;5.07;;;1.33;;
41139;SDS011;26881;48.784;9.192;2022-09-17T23:01:37;6.75;;;1.60;;
41139;SDS011;26881;48.784;9.192;2022-09-17T23:06:59;4.07;;;1.30;;
41139;SDS011;26881;48.784;9.192;2022-09-17T23:12:21;3.95;;;1.60;;
41139;SDS011;26881;48.784;9.192;2022-09-17T23:17:43;2.92;;;1.40;;
41139;SDS011;26881;48.784;9.192;2022-09-17T23:23:05;4.50;;;1.60;;
41139;SDS011;26881;48.784;9.192;2022-09-17T23:28:26;5.40;;;1.40;;
41139;SDS011;26881;48.784;9.192;2022-09-17T23:33:48;6.90;;;1.35;;
41139;SDS011;26881;48.784;9.192;2022-09-17T23:39:10;7.50;;;1.63;;
41139;SDS011;26881;48.784;9.192;2022-09-17T23:44:32;7.10;;;1.42;;
41139;SDS011;26881;48.784;9.192;2022-09-17T23:49:54;5.55;;;1.52;;
41139;SDS011;26881;48.784;9.192;2022-09-17T23:55:16;7.18;;;1.92;;
